sensor_id;sensor_type;location;lat;lon;timestamp;P1;durP1;ratioP1;P2;durP2;ratioP2
1505;SDS011;744;51.436;7.356;2023-04-24T00:01:01;0.50;;;0.40;;
1505;SDS011;744;51.436;7.356;2023-04-24T00:03:28;0.50;;;0.50;;
1505;SDS011;744;51.436;7.356;2023-04-24T00:05:56;0.60;;;0.57;;
1505;SDS011;744;51.436;7.356;2023-04-24T00:08:23;1.90;;;0.50;;
1505;SDS011;744;51.436;7.356;2023-04-24T00:10:50;0.83;;;0.60;;
1505;SDS011;744;51.436;7.356;2023-04-24T00:13:18;3.97;;;0.50;;
1505;SDS011;744;51.436;7.356;2023-04-24T00:15:45;0.60;;;0.40;;
1505;SDS011;744;51.436;7.356;2023-04-24T00:18:12;1.03;;;0.80;;
1505;SDS011;744;51.436;7.356;2023-04-24T00:20:39;0.93;;;0.50;;
1505;SDS011;744;51.436;7.356;2023-04-24T00:23:06;0.70;;;0.70;;
1505;SDS011;744;51.436;7.356;2023-04-24T00:25:33;0.80;;;0.50;;
1505;SDS011;744;51.436;7.356;2023-04-24T00:27:59;1.30;;;0.70;;
1505;SDS011;744;51.436;7.356;2023-04-24T00:30:26;0.90;;;0.80;;
1505;SDS011;744;51.436;7.356;2023-04-24T00:32:53;0.60;;;0.50;;
1505;SDS011;744;51.436;7.356;2023-04-24T00:35:20;0.83;;;0.80;;
1505;SDS011;744;51.436;7.356;2023-04-24T00:37:46;0.90;;;0.57;;
1505;SDS011;744;51.436;7.356;2023-04-24T00:40:13;0.73;;;0.73;;
1505;SDS011;744;51.436;7.356;2023-04-24T00:42:40;0.80;;;0.73;;
1505;SDS011;744;51.436;7.356;2023-04-24T00:45:07;2.17;;;1.07;;
1505;SDS011;744;51.436;7.356;2023-04-24T00:47:34;1.63;;;1.20;;
1505;SDS011;744;51.436;7.356;2023-04-24T00:50:02;0.80;;;0.80;;
1505;SDS011;744;51.436;7.356;2023-04-24T00:52:30;0.60;;;0.60;;
1505;SDS011;744;51.436;7.356;2023-04-24T00:54:58;0.80;;;0.70;;
1505;SDS011;744;51.436;7.356;2023-04-24T00:57:25;0.97;;;0.90;;
1505;SDS011;744;51.436;7.356;2023-04-24T00:59:52;1.17;;;0.90;;
1505;SDS011;744;51.436;7.356;2023-04-24T01:02:20;1.27;;;1.00;;
1505;SDS011;744;51.436;7.356;2023-04-24T01:04:49;1.23;;;1.07;;
1505;SDS011;744;51.436;7.356;2023-04-24T01:07:19;1.33;;;0.90;;
1505;SDS011;744;51.436;7.356;2023-04-24T01:09:47;1.30;;;0.80;;
1505;SDS011;744;51.436;7.356;2023-04-24T01:12:17;0.87;;;0.87;;
1505;SDS011;744;51.436;7.356;2023-04-24T01:14:45;1.00;;;0.90;;
1505;SDS011;744;51.436;7.356;2023-04-24T01:17:12;1.93;;;1.00;;
1505;SDS011;744;51.436;7.356;2023-04-24T01:19:39;1.00;;;0.90;;
1505;SDS011;744;51.436;7.356;2023-04-24T01:22:10;2.93;;;0.77;;
1505;SDS011;744;51.436;7.356;2023-04-24T01:24:38;1.50;;;1.40;;
1505;SDS011;744;51.436;7.356;2023-04-24T01:27:06;1.47;;;0.87;;
1505;SDS011;744;51.436;7.356;2023-04-24T01:29:33;2.83;;;1.00;;
1505;SDS011;744;51.436;7.356;2023-04-24T01:32:01;1.30;;;0.80;;
1505;SDS011;744;51.436;7.356;2023-04-24T01:34:29;0.83;;;0.83;;
1505;SDS011;744;51.436;7.356;2023-04-24T01:36:56;4.13;;;1.17;;
1505;SDS011;744;51.436;7.356;2023-04-24T01:39:23;1.40;;;1.00;;
1505;SDS011;744;51.436;7.356;2023-04-24T01:41:52;1.57;;;1.37;;
1505;SDS011;744;51.436;7.356;2023-04-24T01:44:20;1.03;;;0.90;;
1505;SDS011;744;51.436;7.356;2023-04-24T01:46:47;1.10;;;1.00;;
1505;SDS011;744;51.436;7.356;2023-04-24T01:49:14;1.10;;;1.00;;
1505;SDS011;744;51.436;7.356;2023-04-24T01:51:41;1.50;;;1.10;;
1505;SDS011;744;51.436;7.356;2023-04-24T01:54:08;1.57;;;0.90;;
1505;SDS011;744;51.436;7.356;2023-04-24T01:56:35;1.27;;;1.17;;
1505;SDS011;744;51.436;7.356;2023-04-24T01:59:05;3.53;;;1.70;;
1505;SDS011;744;51.436;7.356;2023-04-24T02:01:36;1.40;;;1.03;;
1505;SDS011;744;51.436;7.356;2023-04-24T02:04:04;1.10;;;0.90;;
1505;SDS011;744;51.436;7.356;2023-04-24T02:06:32;1.40;;;1.30;;
1505;SDS011;744;51.436;7.356;2023-04-24T02:08:59;1.23;;;1.13;;
1505;SDS011;744;51.436;7.356;2023-04-24T02:11:26;2.50;;;1.27;;
1505;SDS011;744;51.436;7.356;2023-04-24T02:13:53;1.20;;;1.10;;
1505;SDS011;744;51.436;7.356;2023-04-24T02:16:19;2.20;;;1.90;;
1505;SDS011;744;51.436;7.356;2023-04-24T02:18:46;2.00;;;1.80;;
1505;SDS011;744;51.436;7.356;2023-04-24T02:21:13;2.50;;;2.30;;
1505;SDS011;744;51.436;7.356;2023-04-24T02:23:40;2.80;;;2.03;;
1505;SDS011;744;51.436;7.356;2023-04-24T02:26:07;2.73;;;2.50;;
1505;SDS011;744;51.436;7.356;2023-04-24T02:28:34;2.50;;;2.30;;
1505;SDS011;744;51.436;7.356;2023-04-24T02:31:01;2.50;;;2.30;;
1505;SDS011;744;51.436;7.356;2023-04-24T02:33:28;4.40;;;2.23;;
1505;SDS011;744;51.436;7.356;2023-04-24T02:35:54;3.60;;;3.07;;
1505;SDS011;744;51.436;7.356;2023-04-24T02:38:21;2.93;;;2.27;;
1505;SDS011;744;51.436;7.356;2023-04-24T02:40:48;3.20;;;2.47;;
1505;SDS011;744;51.436;7.356;2023-04-24T02:43:15;4.80;;;2.90;;
1505;SDS011;744;51.436;7.356;2023-04-24T02:45:42;3.70;;;3.10;;
1505;SDS011;744;51.436;7.356;2023-04-24T02:48:08;4.57;;;3.20;;
1505;SDS011;744;51.436;7.356;2023-04-24T02:50:35;5.83;;;3.80;;
1505;SDS011;744;51.436;7.356;2023-04-24T02:53:02;3.93;;;3.17;;
1505;SDS011;744;51.436;7.356;2023-04-24T02:55:29;3.90;;;3.60;;
1505;SDS011;744;51.436;7.356;2023-04-24T02:57:56;5.50;;;4.23;;
1505;SDS011;744;51.436;7.356;2023-04-24T03:00:23;5.20;;;4.60;;
1505;SDS011;744;51.436;7.356;2023-04-24T03:02:50;4.60;;;4.20;;
1505;SDS011;744;51.436;7.356;2023-04-24T03:05:17;5.40;;;4.90;;
1505;SDS011;744;51.436;7.356;2023-04-24T03:07:44;5.47;;;4.83;;
1505;SDS011;744;51.436;7.356;2023-04-24T03:10:11;5.33;;;4.90;;
1505;SDS011;744;51.436;7.356;2023-04-24T03:12:38;6.33;;;5.63;;
1505;SDS011;744;51.436;7.356;2023-04-24T03:15:05;6.43;;;4.77;;
1505;SDS011;744;51.436;7.356;2023-04-24T03:17:32;5.67;;;4.60;;
1505;SDS011;744;51.436;7.356;2023-04-24T03:19:59;6.20;;;5.60;;
1505;SDS011;744;51.436;7.356;2023-04-24T03:22:26;6.27;;;5.23;;
1505;SDS011;744;51.436;7.356;2023-04-24T03:24:53;7.33;;;5.60;;
1505;SDS011;744;51.436;7.356;2023-04-24T03:27:21;6.27;;;5.60;;
1505;SDS011;744;51.436;7.356;2023-04-24T03:29:47;7.50;;;6.30;;
1505;SDS011;744;51.436;7.356;2023-04-24T03:32:18;6.20;;;5.60;;
1505;SDS011;744;51.436;7.356;2023-04-24T03:34:44;8.80;;;7.23;;
1505;SDS011;744;51.436;7.356;2023-04-24T03:37:12;10.07;;;6.87;;
1505;SDS011;744;51.436;7.356;2023-04-24T03:39:38;7.87;;;6.43;;
1505;SDS011;744;51.436;7.356;2023-04-24T03:42:05;7.27;;;6.67;;
1505;SDS011;744;51.436;7.356;2023-04-24T03:44:32;10.43;;;7.30;;
1505;SDS011;744;51.436;7.356;2023-04-24T03:46:59;7.87;;;6.30;;
1505;SDS011;744;51.436;7.356;2023-04-24T03:49:26;10.60;;;7.97;;
1505;SDS011;744;51.436;7.356;2023-04-24T03:51:52;12.10;;;6.93;;
1505;SDS011;744;51.436;7.356;2023-04-24T03:54:19;8.10;;;7.30;;
1505;SDS011;744;51.436;7.356;2023-04-24T03:56:46;7.50;;;6.80;;
1505;SDS011;744;51.436;7.356;2023-04-24T03:59:13;7.83;;;6.80;;
1505;SDS011;744;51.436;7.356;2023-04-24T04:01:40;10.60;;;7.10;;
1505;SDS011;744;51.436;7.356;2023-04-24T04:04:09;7.90;;;6.73;;
1505;SDS011;744;51.436;7.356;2023-04-24T04:06:36;9.67;;;6.83;;
1505;SDS011;744;51.436;7.356;2023-04-24T04:09:03;10.53;;;8.17;;
1505;SDS011;744;51.436;7.356;2023-04-24T04:11:30;8.53;;;7.17;;
1505;SDS011;744;51.436;7.356;2023-04-24T04:13:56;7.70;;;7.00;;
1505;SDS011;744;51.436;7.356;2023-04-24T04:16:23;8.37;;;7.60;;
1505;SDS011;744;51.436;7.356;2023-04-24T04:18:50;11.93;;;7.80;;
1505;SDS011;744;51.436;7.356;2023-04-24T04:21:17;8.13;;;7.10;;
1505;SDS011;744;51.436;7.356;2023-04-24T04:23:44;11.03;;;8.90;;
1505;SDS011;744;51.436;7.356;2023-04-24T04:26:11;7.90;;;7.10;;
1505;SDS011;744;51.436;7.356;2023-04-24T04:28:38;7.40;;;6.70;;
1505;SDS011;744;51.436;7.356;2023-04-24T04:31:05;10.40;;;8.37;;
1505;SDS011;744;51.436;7.356;2023-04-24T04:33:33;9.60;;;6.30;;
1505;SDS011;744;51.436;7.356;2023-04-24T04:36:02;8.13;;;7.33;;
1505;SDS011;744;51.436;7.356;2023-04-24T04:38:29;8.30;;;7.50;;
1505;SDS011;744;51.436;7.356;2023-04-24T04:40:56;7.93;;;7.20;;
1505;SDS011;744;51.436;7.356;2023-04-24T04:43:23;8.63;;;6.97;;
1505;SDS011;744;51.436;7.356;2023-04-24T04:45:51;8.07;;;7.27;;
1505;SDS011;744;51.436;7.356;2023-04-24T04:48:18;11.03;;;8.00;;
1505;SDS011;744;51.436;7.356;2023-04-24T04:50:45;9.30;;;8.10;;
1505;SDS011;744;51.436;7.356;2023-04-24T04:53:12;11.67;;;8.93;;
1505;SDS011;744;51.436;7.356;2023-04-24T04:55:39;10.30;;;8.80;;
1505;SDS011;744;51.436;7.356;2023-04-24T04:58:05;12.47;;;8.87;;
1505;SDS011;744;51.436;7.356;2023-04-24T05:00:32;9.70;;;7.97;;
1505;SDS011;744;51.436;7.356;2023-04-24T05:03:01;12.73;;;7.87;;
1505;SDS011;744;51.436;7.356;2023-04-24T05:05:46;11.83;;;8.73;;
1505;SDS011;744;51.436;7.356;2023-04-24T05:08:13;10.57;;;7.97;;
1505;SDS011;744;51.436;7.356;2023-04-24T05:10:52;10.43;;;7.70;;
1505;SDS011;744;51.436;7.356;2023-04-24T05:13:19;10.40;;;9.40;;
1505;SDS011;744;51.436;7.356;2023-04-24T05:16:01;10.57;;;8.23;;
1505;SDS011;744;51.436;7.356;2023-04-24T05:18:28;7.80;;;7.00;;
1505;SDS011;744;51.436;7.356;2023-04-24T05:20:54;9.40;;;7.60;;
1505;SDS011;744;51.436;7.356;2023-04-24T05:23:21;10.50;;;8.20;;
1505;SDS011;744;51.436;7.356;2023-04-24T05:25:48;8.80;;;7.97;;
1505;SDS011;744;51.436;7.356;2023-04-24T05:28:15;7.70;;;6.33;;
1505;SDS011;744;51.436;7.356;2023-04-24T05:30:42;8.17;;;7.17;;
1505;SDS011;744;51.436;7.356;2023-04-24T05:33:08;8.90;;;6.20;;
1505;SDS011;744;51.436;7.356;2023-04-24T05:35:36;7.53;;;6.90;;
1505;SDS011;744;51.436;7.356;2023-04-24T05:38:02;7.37;;;6.67;;
1505;SDS011;744;51.436;7.356;2023-04-24T05:40:29;9.37;;;6.67;;
1505;SDS011;744;51.436;7.356;2023-04-24T05:42:56;8.73;;;7.20;;
1505;SDS011;744;51.436;7.356;2023-04-24T05:45:23;7.27;;;6.57;;
1505;SDS011;744;51.436;7.356;2023-04-24T05:47:49;7.67;;;6.87;;
1505;SDS011;744;51.436;7.356;2023-04-24T05:50:18;8.30;;;6.87;;
1505;SDS011;744;51.436;7.356;2023-04-24T05:52:45;7.13;;;6.00;;
1505;SDS011;744;51.436;7.356;2023-04-24T05:55:12;11.10;;;6.80;;
1505;SDS011;744;51.436;7.356;2023-04-24T05:57:39;8.80;;;5.70;;
1505;SDS011;744;51.436;7.356;2023-04-24T06:00:06;7.10;;;6.37;;
1505;SDS011;744;51.436;7.356;2023-04-24T06:02:34;8.70;;;7.80;;
1505;SDS011;744;51.436;7.356;2023-04-24T06:05:01;9.53;;;7.13;;
1505;SDS011;744;51.436;7.356;2023-04-24T06:07:28;7.10;;;6.50;;
1505;SDS011;744;51.436;7.356;2023-04-24T06:09:55;7.80;;;7.00;;
1505;SDS011;744;51.436;7.356;2023-04-24T06:12:22;7.23;;;6.43;;
1505;SDS011;744;51.436;7.356;2023-04-24T06:14:49;7.37;;;6.50;;
1505;SDS011;744;51.436;7.356;2023-04-24T06:17:16;7.90;;;6.20;;
1505;SDS011;744;51.436;7.356;2023-04-24T06:19:43;8.37;;;6.60;;
1505;SDS011;744;51.436;7.356;2023-04-24T06:22:10;5.90;;;5.30;;
1505;SDS011;744;51.436;7.356;2023-04-24T06:24:37;5.93;;;5.43;;
1505;SDS011;744;51.436;7.356;2023-04-24T06:27:03;5.30;;;4.80;;
1505;SDS011;744;51.436;7.356;2023-04-24T06:29:30;9.63;;;5.63;;
1505;SDS011;744;51.436;7.356;2023-04-24T06:31:57;4.80;;;4.40;;
1505;SDS011;744;51.436;7.356;2023-04-24T06:34:24;5.00;;;4.20;;
1505;SDS011;744;51.436;7.356;2023-04-24T06:36:51;4.63;;;4.20;;
1505;SDS011;744;51.436;7.356;2023-04-24T06:39:18;4.50;;;4.10;;
1505;SDS011;744;51.436;7.356;2023-04-24T06:41:44;5.47;;;4.70;;
1505;SDS011;744;51.436;7.356;2023-04-24T06:44:11;6.30;;;3.97;;
1505;SDS011;744;51.436;7.356;2023-04-24T06:46:38;8.30;;;4.70;;
1505;SDS011;744;51.436;7.356;2023-04-24T06:49:07;5.47;;;5.00;;
1505;SDS011;744;51.436;7.356;2023-04-24T06:51:33;8.03;;;4.97;;
1505;SDS011;744;51.436;7.356;2023-04-24T06:54:01;5.57;;;5.17;;
1505;SDS011;744;51.436;7.356;2023-04-24T06:56:28;5.20;;;4.70;;
1505;SDS011;744;51.436;7.356;2023-04-24T06:58:55;4.60;;;4.20;;
1505;SDS011;744;51.436;7.356;2023-04-24T07:01:22;5.77;;;5.23;;
1505;SDS011;744;51.436;7.356;2023-04-24T07:03:49;4.73;;;4.33;;
1505;SDS011;744;51.436;7.356;2023-04-24T07:06:16;5.90;;;5.37;;
1505;SDS011;744;51.436;7.356;2023-04-24T07:08:44;5.23;;;4.83;;
1505;SDS011;744;51.436;7.356;2023-04-24T07:11:12;4.87;;;4.47;;
1505;SDS011;744;51.436;7.356;2023-04-24T07:13:39;5.57;;;5.07;;
1505;SDS011;744;51.436;7.356;2023-04-24T07:16:08;5.87;;;5.03;;
1505;SDS011;744;51.436;7.356;2023-04-24T07:18:36;5.30;;;4.80;;
1505;SDS011;744;51.436;7.356;2023-04-24T07:21:03;4.80;;;4.40;;
1505;SDS011;744;51.436;7.356;2023-04-24T07:23:30;3.80;;;3.40;;
1505;SDS011;744;51.436;7.356;2023-04-24T07:25:57;3.80;;;3.50;;
1505;SDS011;744;51.436;7.356;2023-04-24T07:28:24;3.70;;;3.40;;
1505;SDS011;744;51.436;7.356;2023-04-24T07:30:51;4.07;;;3.43;;
1505;SDS011;744;51.436;7.356;2023-04-24T07:33:20;2.63;;;2.43;;
1505;SDS011;744;51.436;7.356;2023-04-24T07:35:47;2.63;;;2.43;;
1505;SDS011;744;51.436;7.356;2023-04-24T07:38:14;2.43;;;2.07;;
1505;SDS011;744;51.436;7.356;2023-04-24T07:40:41;2.60;;;2.30;;
1505;SDS011;744;51.436;7.356;2023-04-24T07:43:08;4.40;;;2.00;;
1505;SDS011;744;51.436;7.356;2023-04-24T07:45:35;3.30;;;1.93;;
1505;SDS011;744;51.436;7.356;2023-04-24T07:48:03;3.13;;;2.50;;
1505;SDS011;744;51.436;7.356;2023-04-24T07:50:31;2.40;;;2.20;;
1505;SDS011;744;51.436;7.356;2023-04-24T07:52:59;2.37;;;2.10;;
1505;SDS011;744;51.436;7.356;2023-04-24T07:55:26;2.83;;;1.40;;
1505;SDS011;744;51.436;7.356;2023-04-24T07:57:53;1.73;;;1.60;;
1505;SDS011;744;51.436;7.356;2023-04-24T08:00:20;1.77;;;1.67;;
1505;SDS011;744;51.436;7.356;2023-04-24T08:02:47;2.30;;;1.50;;
1505;SDS011;744;51.436;7.356;2023-04-24T08:05:15;2.03;;;1.27;;
1505;SDS011;744;51.436;7.356;2023-04-24T08:07:42;2.20;;;1.50;;
1505;SDS011;744;51.436;7.356;2023-04-24T08:10:12;2.00;;;1.20;;
1505;SDS011;744;51.436;7.356;2023-04-24T08:12:39;4.00;;;1.77;;
1505;SDS011;744;51.436;7.356;2023-04-24T08:15:07;2.07;;;1.60;;
1505;SDS011;744;51.436;7.356;2023-04-24T08:17:34;1.30;;;1.00;;
1505;SDS011;744;51.436;7.356;2023-04-24T08:20:02;1.47;;;1.03;;
1505;SDS011;744;51.436;7.356;2023-04-24T08:22:31;0.73;;;0.73;;
1505;SDS011;744;51.436;7.356;2023-04-24T08:24:59;1.00;;;0.90;;
1505;SDS011;744;51.436;7.356;2023-04-24T08:27:27;0.90;;;0.60;;
1505;SDS011;744;51.436;7.356;2023-04-24T08:29:54;0.63;;;0.50;;
1505;SDS011;744;51.436;7.356;2023-04-24T08:32:21;0.90;;;0.50;;
1505;SDS011;744;51.436;7.356;2023-04-24T08:34:48;1.23;;;0.73;;
1505;SDS011;744;51.436;7.356;2023-04-24T08:37:15;2.63;;;0.50;;
1505;SDS011;744;51.436;7.356;2023-04-24T08:39:42;0.70;;;0.40;;
1505;SDS011;744;51.436;7.356;2023-04-24T08:42:09;0.60;;;0.20;;
1505;SDS011;744;51.436;7.356;2023-04-24T08:44:38;2.10;;;0.53;;
1505;SDS011;744;51.436;7.356;2023-04-24T08:47:05;1.20;;;0.57;;
1505;SDS011;744;51.436;7.356;2023-04-24T08:49:34;1.63;;;0.80;;
1505;SDS011;744;51.436;7.356;2023-04-24T08:52:02;1.13;;;0.60;;
1505;SDS011;744;51.436;7.356;2023-04-24T08:54:29;0.40;;;0.40;;
1505;SDS011;744;51.436;7.356;2023-04-24T08:56:58;1.10;;;0.40;;
1505;SDS011;744;51.436;7.356;2023-04-24T08:59:30;1.53;;;0.63;;
1505;SDS011;744;51.436;7.356;2023-04-24T09:01:57;2.10;;;0.60;;
1505;SDS011;744;51.436;7.356;2023-04-24T09:04:25;0.63;;;0.50;;
1505;SDS011;744;51.436;7.356;2023-04-24T09:06:55;1.80;;;0.60;;
1505;SDS011;744;51.436;7.356;2023-04-24T09:09:24;0.80;;;0.50;;
1505;SDS011;744;51.436;7.356;2023-04-24T09:11:51;0.90;;;0.50;;
1505;SDS011;744;51.436;7.356;2023-04-24T09:14:21;0.50;;;0.50;;
1505;SDS011;744;51.436;7.356;2023-04-24T09:16:50;1.13;;;0.70;;
1505;SDS011;744;51.436;7.356;2023-04-24T09:19:17;0.57;;;0.50;;
1505;SDS011;744;51.436;7.356;2023-04-24T09:21:47;1.63;;;0.60;;
1505;SDS011;744;51.436;7.356;2023-04-24T09:24:18;1.20;;;0.97;;
1505;SDS011;744;51.436;7.356;2023-04-24T09:26:48;0.80;;;0.80;;
1505;SDS011;744;51.436;7.356;2023-04-24T09:29:24;0.90;;;0.80;;
1505;SDS011;744;51.436;7.356;2023-04-24T09:31:50;0.97;;;0.90;;
1505;SDS011;744;51.436;7.356;2023-04-24T09:34:25;1.23;;;1.00;;
1505;SDS011;744;51.436;7.356;2023-04-24T09:36:53;1.40;;;1.30;;
1505;SDS011;744;51.436;7.356;2023-04-24T09:39:20;3.00;;;1.50;;
1505;SDS011;744;51.436;7.356;2023-04-24T09:44:19;2.17;;;0.70;;
1505;SDS011;744;51.436;7.356;2023-04-24T09:46:51;1.00;;;0.90;;
1505;SDS011;744;51.436;7.356;2023-04-24T09:49:23;1.50;;;0.97;;
1505;SDS011;744;51.436;7.356;2023-04-24T09:52:07;4.50;;;0.90;;
1505;SDS011;744;51.436;7.356;2023-04-24T09:54:36;4.70;;;1.57;;
1505;SDS011;744;51.436;7.356;2023-04-24T09:57:03;1.97;;;1.10;;
1505;SDS011;744;51.436;7.356;2023-04-24T09:59:31;2.20;;;1.43;;
1505;SDS011;744;51.436;7.356;2023-04-24T10:01:57;2.27;;;2.07;;
1505;SDS011;744;51.436;7.356;2023-04-24T10:04:27;3.10;;;2.00;;
1505;SDS011;744;51.436;7.356;2023-04-24T10:06:55;2.70;;;1.70;;
1505;SDS011;744;51.436;7.356;2023-04-24T10:09:24;2.27;;;1.90;;
1505;SDS011;744;51.436;7.356;2023-04-24T10:11:53;2.30;;;2.10;;
1505;SDS011;744;51.436;7.356;2023-04-24T10:14:21;3.10;;;2.17;;
1505;SDS011;744;51.436;7.356;2023-04-24T10:16:50;2.90;;;2.30;;
1505;SDS011;744;51.436;7.356;2023-04-24T10:19:20;2.30;;;2.10;;
1505;SDS011;744;51.436;7.356;2023-04-24T10:21:47;1.57;;;1.40;;
1505;SDS011;744;51.436;7.356;2023-04-24T10:24:14;1.87;;;1.77;;
1505;SDS011;744;51.436;7.356;2023-04-24T10:26:45;2.17;;;1.70;;
1505;SDS011;744;51.436;7.356;2023-04-24T10:29:14;2.27;;;2.07;;
1505;SDS011;744;51.436;7.356;2023-04-24T10:31:42;2.10;;;1.87;;
1505;SDS011;744;51.436;7.356;2023-04-24T10:34:14;2.93;;;2.03;;
1505;SDS011;744;51.436;7.356;2023-04-24T10:36:48;1.90;;;1.77;;
1505;SDS011;744;51.436;7.356;2023-04-24T10:39:23;2.60;;;1.90;;
1505;SDS011;744;51.436;7.356;2023-04-24T10:41:53;1.90;;;1.77;;
1505;SDS011;744;51.436;7.356;2023-04-24T10:44:24;2.37;;;2.17;;
1505;SDS011;744;51.436;7.356;2023-04-24T10:46:54;4.20;;;2.10;;
1505;SDS011;744;51.436;7.356;2023-04-24T10:49:29;3.13;;;2.90;;
1505;SDS011;744;51.436;7.356;2023-04-24T10:52:01;7.10;;;2.83;;
1505;SDS011;744;51.436;7.356;2023-04-24T10:54:35;4.40;;;3.57;;
1505;SDS011;744;51.436;7.356;2023-04-24T10:59:46;5.90;;;3.30;;
1505;SDS011;744;51.436;7.356;2023-04-24T11:02:36;3.50;;;3.17;;
1505;SDS011;744;51.436;7.356;2023-04-24T11:05:04;4.30;;;3.70;;
1505;SDS011;744;51.436;7.356;2023-04-24T11:10:45;6.17;;;3.90;;
1505;SDS011;744;51.436;7.356;2023-04-24T11:13:16;6.47;;;4.53;;
1505;SDS011;744;51.436;7.356;2023-04-24T11:18:52;9.53;;;6.80;;
1505;SDS011;744;51.436;7.356;2023-04-24T11:21:30;8.97;;;6.40;;
1505;SDS011;744;51.436;7.356;2023-04-24T11:24:24;10.23;;;5.70;;
1505;SDS011;744;51.436;7.356;2023-04-24T11:30:09;13.30;;;6.10;;
1505;SDS011;744;51.436;7.356;2023-04-24T11:34:46;10.70;;;6.07;;
1505;SDS011;744;51.436;7.356;2023-04-24T11:37:14;9.40;;;6.20;;
1505;SDS011;744;51.436;7.356;2023-04-24T11:39:41;6.47;;;5.70;;
1505;SDS011;744;51.436;7.356;2023-04-24T11:42:09;9.30;;;5.57;;
1505;SDS011;744;51.436;7.356;2023-04-24T11:44:36;10.90;;;5.70;;
1505;SDS011;744;51.436;7.356;2023-04-24T11:47:06;9.70;;;5.50;;
1505;SDS011;744;51.436;7.356;2023-04-24T11:49:37;9.53;;;5.00;;
1505;SDS011;744;51.436;7.356;2023-04-24T11:52:05;7.60;;;4.80;;
1505;SDS011;744;51.436;7.356;2023-04-24T11:54:32;8.53;;;5.10;;
1505;SDS011;744;51.436;7.356;2023-04-24T11:56:59;7.90;;;5.07;;
1505;SDS011;744;51.436;7.356;2023-04-24T11:59:34;8.53;;;5.43;;
1505;SDS011;744;51.436;7.356;2023-04-24T12:02:02;10.73;;;5.20;;
1505;SDS011;744;51.436;7.356;2023-04-24T12:04:38;8.00;;;4.80;;
1505;SDS011;744;51.436;7.356;2023-04-24T12:07:08;11.53;;;6.10;;
1505;SDS011;744;51.436;7.356;2023-04-24T12:09:42;11.20;;;5.00;;
1505;SDS011;744;51.436;7.356;2023-04-24T12:12:15;5.40;;;3.80;;
1505;SDS011;744;51.436;7.356;2023-04-24T12:14:47;11.43;;;4.20;;
1505;SDS011;744;51.436;7.356;2023-04-24T12:17:16;10.70;;;4.60;;
1505;SDS011;744;51.436;7.356;2023-04-24T12:19:46;7.83;;;4.13;;
1505;SDS011;744;51.436;7.356;2023-04-24T12:22:14;5.93;;;5.30;;
1505;SDS011;744;51.436;7.356;2023-04-24T12:25:00;6.37;;;3.67;;
1505;SDS011;744;51.436;7.356;2023-04-24T12:27:29;6.03;;;3.77;;
1505;SDS011;744;51.436;7.356;2023-04-24T12:30:00;8.40;;;4.23;;
1505;SDS011;744;51.436;7.356;2023-04-24T12:32:28;5.03;;;3.70;;
1505;SDS011;744;51.436;7.356;2023-04-24T12:34:56;4.67;;;3.53;;
1505;SDS011;744;51.436;7.356;2023-04-24T12:37:26;8.07;;;4.30;;
1505;SDS011;744;51.436;7.356;2023-04-24T12:42:27;14.80;;;4.07;;
1505;SDS011;744;51.436;7.356;2023-04-24T12:44:59;6.33;;;3.90;;
1505;SDS011;744;51.436;7.356;2023-04-24T12:47:27;7.30;;;3.90;;
1505;SDS011;744;51.436;7.356;2023-04-24T12:49:54;12.00;;;4.60;;
1505;SDS011;744;51.436;7.356;2023-04-24T12:52:22;8.80;;;4.20;;
1505;SDS011;744;51.436;7.356;2023-04-24T12:54:50;6.50;;;3.57;;
1505;SDS011;744;51.436;7.356;2023-04-24T12:57:18;12.50;;;5.43;;
1505;SDS011;744;51.436;7.356;2023-04-24T12:59:45;6.53;;;4.00;;
1505;SDS011;744;51.436;7.356;2023-04-24T13:02:12;4.87;;;3.67;;
1505;SDS011;744;51.436;7.356;2023-04-24T13:04:39;6.17;;;3.43;;
1505;SDS011;744;51.436;7.356;2023-04-24T13:07:06;7.50;;;2.80;;
1505;SDS011;744;51.436;7.356;2023-04-24T13:09:34;7.67;;;2.70;;
1505;SDS011;744;51.436;7.356;2023-04-24T13:12:01;7.50;;;3.73;;
1505;SDS011;744;51.436;7.356;2023-04-24T13:14:28;4.33;;;2.73;;
1505;SDS011;744;51.436;7.356;2023-04-24T13:16:55;4.90;;;3.30;;
1505;SDS011;744;51.436;7.356;2023-04-24T13:19:23;7.67;;;3.50;;
1505;SDS011;744;51.436;7.356;2023-04-24T13:21:56;6.30;;;3.70;;
1505;SDS011;744;51.436;7.356;2023-04-24T13:24:23;6.50;;;3.70;;
1505;SDS011;744;51.436;7.356;2023-04-24T13:26:51;4.90;;;3.60;;
1505;SDS011;744;51.436;7.356;2023-04-24T13:29:19;4.23;;;2.87;;
1505;SDS011;744;51.436;7.356;2023-04-24T13:31:46;3.70;;;2.60;;
1505;SDS011;744;51.436;7.356;2023-04-24T13:34:13;5.90;;;3.67;;
1505;SDS011;744;51.436;7.356;2023-04-24T13:36:40;9.63;;;2.60;;
1505;SDS011;744;51.436;7.356;2023-04-24T13:39:07;2.80;;;2.30;;
1505;SDS011;744;51.436;7.356;2023-04-24T13:41:33;5.80;;;3.33;;
1505;SDS011;744;51.436;7.356;2023-04-24T13:44:02;7.00;;;4.60;;
1505;SDS011;744;51.436;7.356;2023-04-24T13:46:30;11.80;;;5.53;;
1505;SDS011;744;51.436;7.356;2023-04-24T13:48:56;11.33;;;3.40;;
1505;SDS011;744;51.436;7.356;2023-04-24T13:51:25;3.83;;;2.20;;
1505;SDS011;744;51.436;7.356;2023-04-24T13:53:55;2.13;;;1.70;;
1505;SDS011;744;51.436;7.356;2023-04-24T13:56:22;5.53;;;2.00;;
1505;SDS011;744;51.436;7.356;2023-04-24T13:58:49;3.77;;;1.40;;
1505;SDS011;744;51.436;7.356;2023-04-24T14:01:16;2.50;;;1.87;;
1505;SDS011;744;51.436;7.356;2023-04-24T14:03:43;2.13;;;1.60;;
1505;SDS011;744;51.436;7.356;2023-04-24T14:06:10;2.77;;;1.60;;
1505;SDS011;744;51.436;7.356;2023-04-24T14:08:37;6.83;;;2.00;;
1505;SDS011;744;51.436;7.356;2023-04-24T14:11:04;3.37;;;1.87;;
1505;SDS011;744;51.436;7.356;2023-04-24T14:13:31;6.93;;;1.70;;
1505;SDS011;744;51.436;7.356;2023-04-24T14:15:58;5.97;;;2.10;;
1505;SDS011;744;51.436;7.356;2023-04-24T14:18:24;2.13;;;1.93;;
1505;SDS011;744;51.436;7.356;2023-04-24T14:20:52;2.73;;;1.30;;
1505;SDS011;744;51.436;7.356;2023-04-24T14:23:19;1.63;;;1.20;;
1505;SDS011;744;51.436;7.356;2023-04-24T14:25:46;3.67;;;1.67;;
1505;SDS011;744;51.436;7.356;2023-04-24T14:28:17;3.60;;;1.33;;
1505;SDS011;744;51.436;7.356;2023-04-24T14:30:45;3.13;;;1.10;;
1505;SDS011;744;51.436;7.356;2023-04-24T14:33:12;1.47;;;1.07;;
1505;SDS011;744;51.436;7.356;2023-04-24T14:35:42;3.37;;;1.50;;
1505;SDS011;744;51.436;7.356;2023-04-24T14:38:10;3.67;;;1.77;;
1505;SDS011;744;51.436;7.356;2023-04-24T14:40:37;3.77;;;1.50;;
1505;SDS011;744;51.436;7.356;2023-04-24T14:43:07;2.73;;;1.80;;
1505;SDS011;744;51.436;7.356;2023-04-24T14:45:34;3.43;;;1.73;;
1505;SDS011;744;51.436;7.356;2023-04-24T14:48:01;3.40;;;1.73;;
1505;SDS011;744;51.436;7.356;2023-04-24T14:50:28;2.37;;;1.77;;
1505;SDS011;744;51.436;7.356;2023-04-24T14:52:55;3.60;;;1.63;;
1505;SDS011;744;51.436;7.356;2023-04-24T14:55:24;1.70;;;1.60;;
1505;SDS011;744;51.436;7.356;2023-04-24T14:57:53;3.57;;;1.90;;
1505;SDS011;744;51.436;7.356;2023-04-24T15:00:20;3.27;;;1.90;;
1505;SDS011;744;51.436;7.356;2023-04-24T15:02:49;4.63;;;2.27;;
1505;SDS011;744;51.436;7.356;2023-04-24T15:05:16;5.50;;;2.40;;
1505;SDS011;744;51.436;7.356;2023-04-24T15:07:43;4.73;;;2.20;;
1505;SDS011;744;51.436;7.356;2023-04-24T15:10:11;3.10;;;1.80;;
1505;SDS011;744;51.436;7.356;2023-04-24T15:12:38;4.20;;;1.90;;
1505;SDS011;744;51.436;7.356;2023-04-24T15:15:05;4.47;;;1.60;;
1505;SDS011;744;51.436;7.356;2023-04-24T15:17:32;3.13;;;1.93;;
1505;SDS011;744;51.436;7.356;2023-04-24T15:19:59;4.33;;;2.20;;
1505;SDS011;744;51.436;7.356;2023-04-24T15:22:27;5.83;;;2.90;;
1505;SDS011;744;51.436;7.356;2023-04-24T15:24:53;3.20;;;2.30;;
1505;SDS011;744;51.436;7.356;2023-04-24T15:27:20;4.30;;;2.13;;
1505;SDS011;744;51.436;7.356;2023-04-24T15:29:47;2.10;;;1.93;;
1505;SDS011;744;51.436;7.356;2023-04-24T15:32:14;2.30;;;2.10;;
1505;SDS011;744;51.436;7.356;2023-04-24T15:34:41;4.20;;;1.70;;
1505;SDS011;744;51.436;7.356;2023-04-24T15:37:08;1.50;;;1.40;;
1505;SDS011;744;51.436;7.356;2023-04-24T15:39:35;4.10;;;1.80;;
1505;SDS011;744;51.436;7.356;2023-04-24T15:42:02;1.57;;;1.47;;
1505;SDS011;744;51.436;7.356;2023-04-24T15:44:29;1.70;;;1.60;;
1505;SDS011;744;51.436;7.356;2023-04-24T15:46:56;1.60;;;1.50;;
1505;SDS011;744;51.436;7.356;2023-04-24T15:49:26;2.97;;;2.67;;
1505;SDS011;744;51.436;7.356;2023-04-24T15:51:53;4.23;;;3.20;;
1505;SDS011;744;51.436;7.356;2023-04-24T15:54:20;6.63;;;3.20;;